Time;durP1;ratioP1;P1;durP2;ratioP2;P2;SDS_P1;SDS_P2;PMS_P1;PMS_P2;Temp;Humidity;BMP_temperature;BMP_pressure;BME280_temperature;BME280_humidity;BME280_pressure;Samples;Min_cycle;Max_cycle;Signal;HPM_P1;HPM_P2
2024/02/20 00:01:43;;;;;;;4.68;2.75;;;7.00;84.50;;;;;;4976099;28;20117;-76
2024/02/20 00:04:08;;;;;;;5.45;2.45;;;7.10;84.40;;;;;;4976197;28;20018;-75
2024/02/20 00:06:35;;;;;;;2.97;2.20;;;7.10;84.20;;;;;;4992160;28;20057;-76
2024/02/20 00:09:02;;;;;;;4.53;3.03;;;7.20;84.00;;;;;;4976009;28;20022;-75
2024/02/20 00:11:28;;;;;;;6.47;3.42;;;7.20;83.80;;;;;;4975375;28;20030;-74
2024/02/20 00:13:54;;;;;;;5.57;3.30;;;7.20;84.10;;;;;;4976046;28;20022;-77
2024/02/20 00:16:21;;;;;;;9.45;4.05;;;7.20;84.30;;;;;;4975726;28;20050;-75
2024/02/20 00:18:47;;;;;;;13.27;6.75;;;7.10;84.80;;;;;;4976025;28;20109;-75
2024/02/20 00:21:13;;;;;;;10.55;4.93;;;7.20;85.00;;;;;;4975945;28;20108;-74
2024/02/20 00:23:39;;;;;;;4.40;2.58;;;7.10;85.00;;;;;;4975828;28;20472;-75
2024/02/20 00:26:04;;;;;;;4.95;2.58;;;7.10;85.00;;;;;;4975925;28;20514;-76
2024/02/20 00:28:30;;;;;;;4.05;2.40;;;7.10;85.20;;;;;;4975920;28;20030;-76
2024/02/20 00:30:55;;;;;;;3.72;2.67;;;7.10;85.20;;;;;;4975881;28;20042;-74
2024/02/20 00:33:21;;;;;;;4.03;2.42;;;7.10;85.10;;;;;;4975883;28;20442;-74
2024/02/20 00:35:47;;;;;;;3.38;2.28;;;7.10;85.10;;;;;;4975742;28;20026;-72
2024/02/20 00:38:12;;;;;;;4.20;2.40;;;6.90;85.20;;;;;;4975928;28;20113;-75
2024/02/20 00:40:39;;;;;;;3.67;2.20;;;6.90;85.50;;;;;;4975871;28;20018;-72
2024/02/20 00:43:05;;;;;;;3.67;2.13;;;6.90;85.70;;;;;;4975829;28;20066;-73
2024/02/20 00:45:30;;;;;;;3.35;2.45;;;6.90;85.70;;;;;;4975671;28;20455;-75
2024/02/20 00:47:56;;;;;;;3.83;1.85;;;6.80;86.00;;;;;;4975712;28;20034;-74
2024/02/20 00:50:21;;;;;;;4.90;2.00;;;6.90;85.70;;;;;;4975706;28;20018;-74
2024/02/20 00:52:48;;;;;;;3.08;2.10;;;6.90;85.40;;;;;;4992917;28;20034;-76
2024/02/20 00:55:13;;;;;;;3.30;2.08;;;6.90;85.20;;;;;;4975716;28;20430;-74
2024/02/20 00:57:39;;;;;;;2.55;1.83;;;6.90;85.30;;;;;;4976098;28;20114;-74
2024/02/20 01:00:05;;;;;;;2.22;1.40;;;7.00;85.20;;;;;;4979045;28;20070;-75
2024/02/20 01:02:31;;;;;;;2.55;1.77;;;7.00;84.70;;;;;;4978722;28;20018;-73
2024/02/20 01:04:56;;;;;;;1.95;1.40;;;7.00;84.40;;;;;;4979057;28;20026;-75
2024/02/20 01:07:24;;;;;;;1.55;1.30;;;7.00;84.80;;;;;;4978502;28;20558;-74
2024/02/20 01:09:49;;;;;;;2.53;1.55;;;6.90;84.80;;;;;;4979072;28;20113;-74
2024/02/20 01:12:15;;;;;;;2.15;1.50;;;6.90;84.90;;;;;;4978916;28;20170;-74
2024/02/20 01:14:42;;;;;;;2.20;1.80;;;7.00;85.10;;;;;;4978868;28;20025;-75
2024/02/20 01:17:08;;;;;;;2.95;1.80;;;7.00;84.50;;;;;;4978665;28;20053;-74
2024/02/20 01:19:33;;;;;;;3.42;2.05;;;7.00;84.50;;;;;;4978798;28;20368;-74
2024/02/20 01:21:59;;;;;;;3.20;1.75;;;6.90;84.70;;;;;;4978820;28;20101;-76
2024/02/20 01:24:24;;;;;;;1.90;1.33;;;6.80;85.30;;;;;;4978654;28;20536;-75
2024/02/20 01:26:50;;;;;;;2.35;1.67;;;6.80;85.70;;;;;;4978651;28;20436;-72
2024/02/20 01:29:21;;;;;;;1.58;1.00;;;6.80;86.00;;;;;;4978643;28;20391;-75
2024/02/20 01:31:47;;;;;;;3.05;1.40;;;6.90;85.70;;;;;;4978614;28;20497;-75
2024/02/20 01:34:12;;;;;;;2.25;1.55;;;6.80;86.00;;;;;;4994806;28;20085;-75
2024/02/20 01:36:38;;;;;;;1.60;1.50;;;6.80;85.60;;;;;;4978505;28;20082;-75
2024/02/20 01:39:04;;;;;;;1.92;1.27;;;6.80;85.00;;;;;;4978570;28;20019;-75
2024/02/20 01:41:29;;;;;;;1.95;1.23;;;6.80;85.80;;;;;;4995662;28;20518;-74
2024/02/20 01:43:55;;;;;;;2.05;1.20;;;6.90;85.10;;;;;;4978425;28;20034;-75
2024/02/20 01:46:22;;;;;;;2.17;1.50;;;7.00;85.20;;;;;;4995450;28;20034;-74
2024/02/20 01:48:49;;;;;;;4.00;1.40;;;7.00;85.40;;;;;;4995445;28;20379;-77
2024/02/20 01:51:15;;;;;;;2.95;1.35;;;7.00;85.40;;;;;;4995487;28;20031;-73
2024/02/20 01:53:42;;;;;;;2.90;1.50;;;7.00;85.60;;;;;;4995498;28;20025;-76
2024/02/20 01:56:09;;;;;;;4.00;1.38;;;6.90;85.70;;;;;;4995466;28;20014;-74
2024/02/20 01:58:35;;;;;;;2.00;1.60;;;7.00;86.10;;;;;;4995111;28;20361;-74
2024/02/20 02:01:02;;;;;;;2.35;1.60;;;7.00;86.40;;;;;;4993979;28;20100;-75
2024/02/20 02:03:28;;;;;;;2.50;1.20;;;7.00;86.50;;;;;;4995317;28;20060;-75
2024/02/20 02:05:54;;;;;;;1.65;1.40;;;7.10;86.70;;;;;;4994536;28;20070;-75
2024/02/20 02:08:19;;;;;;;1.60;1.05;;;7.10;86.60;;;;;;4975556;28;20186;-74
2024/02/20 02:10:45;;;;;;;2.88;1.35;;;7.20;86.20;;;;;;4975477;28;20037;-75
2024/02/20 02:13:10;;;;;;;2.05;1.20;;;7.20;86.30;;;;;;4975653;28;20026;-77
2024/02/20 02:15:36;;;;;;;2.47;1.40;;;7.20;86.30;;;;;;4975376;28;20106;-76
2024/02/20 02:18:02;;;;;;;1.95;1.40;;;7.20;86.50;;;;;;4975400;28;20031;-76
2024/02/20 02:20:28;;;;;;;2.20;1.50;;;7.10;86.80;;;;;;4975524;28;20038;-76
2024/02/20 02:22:54;;;;;;;4.60;1.90;;;7.20;87.70;;;;;;4975490;28;20031;-76
2024/02/20 02:25:20;;;;;;;2.45;1.48;;;7.20;86.60;;;;;;4975395;28;20155;-76
2024/02/20 02:27:45;;;;;;;1.98;1.50;;;7.20;86.30;;;;;;4975269;28;20122;-76
2024/02/20 02:30:11;;;;;;;2.30;1.67;;;7.20;86.10;;;;;;4975282;28;20109;-75
2024/02/20 02:32:39;;;;;;;2.20;1.50;;;7.20;85.80;;;;;;4975256;28;20026;-74
2024/02/20 02:35:09;;;;;;;2.58;2.10;;;7.30;85.90;;;;;;4975070;28;20022;-75
2024/02/20 02:37:35;;;;;;;1.77;1.65;;;7.30;85.90;;;;;;4975053;28;20405;-77
2024/02/20 02:40:04;;;;;;;3.28;1.80;;;7.30;85.80;;;;;;4975097;28;20031;-76
2024/02/20 02:42:30;;;;;;;2.65;1.40;;;7.30;85.80;;;;;;4975160;28;20034;-76
2024/02/20 02:44:55;;;;;;;1.90;1.70;;;7.30;85.90;;;;;;4975113;28;20094;-77
2024/02/20 02:47:21;;;;;;;2.83;1.83;;;7.30;86.00;;;;;;4974894;28;20042;-74
2024/02/20 02:49:46;;;;;;;1.95;1.40;;;7.30;85.90;;;;;;4975034;28;20496;-74
2024/02/20 02:52:12;;;;;;;2.17;1.70;;;7.30;85.90;;;;;;4975082;28;20106;-75
2024/02/20 02:54:37;;;;;;;1.77;1.52;;;7.40;85.90;;;;;;4975001;28;20031;-74
2024/02/20 02:57:03;;;;;;;3.58;1.75;;;7.40;86.00;;;;;;4974883;28;20039;-74
2024/02/20 02:59:29;;;;;;;2.13;1.33;;;7.40;86.00;;;;;;4974763;28;20033;-73
2024/02/20 03:01:54;;;;;;;2.35;1.58;;;7.30;86.20;;;;;;4974884;28;20372;-76
2024/02/20 03:04:20;;;;;;;5.32;2.10;;;7.30;86.40;;;;;;4974648;28;20054;-72
2024/02/20 03:06:47;;;;;;;4.05;2.08;;;7.30;87.00;;;;;;4974583;28;20039;-73
2024/02/20 03:09:13;;;;;;;4.28;2.13;;;7.20;87.20;;;;;;4974768;28;20014;-76
2024/02/20 03:11:39;;;;;;;4.32;1.88;;;7.10;87.70;;;;;;4974539;28;20392;-74
2024/02/20 03:14:06;;;;;;;2.08;1.80;;;7.00;87.90;;;;;;4974904;28;20062;-73
2024/02/20 03:16:31;;;;;;;4.68;2.45;;;7.00;88.10;;;;;;4974426;28;20050;-73
2024/02/20 03:18:57;;;;;;;2.85;2.25;;;7.00;88.20;;;;;;4974397;28;20166;-73
2024/02/20 03:21:24;;;;;;;4.85;2.08;;;7.10;88.20;;;;;;4956458;28;20030;-74
2024/02/20 03:23:49;;;;;;;2.78;1.80;;;7.10;88.20;;;;;;4974332;28;20610;-72
2024/02/20 03:26:15;;;;;;;3.78;2.22;;;7.20;88.00;;;;;;4974051;28;20106;-74
2024/02/20 03:28:42;;;;;;;5.40;2.50;;;7.10;87.80;;;;;;4974130;28;20105;-73
2024/02/20 03:31:08;;;;;;;4.07;2.50;;;7.10;87.90;;;;;;4974191;28;20391;-73
2024/02/20 03:33:33;;;;;;;3.47;2.28;;;7.20;87.90;;;;;;4974163;28;20035;-73
2024/02/20 03:35:59;;;;;;;3.83;2.47;;;7.20;87.90;;;;;;4972870;28;20114;-73
2024/02/20 03:38:24;;;;;;;3.70;2.53;;;7.20;87.70;;;;;;4974091;28;20026;-73
2024/02/20 03:40:50;;;;;;;5.78;2.75;;;7.30;87.80;;;;;;4974004;28;20034;-74
2024/02/20 03:43:16;;;;;;;4.55;2.92;;;7.30;87.70;;;;;;4974038;28;20038;-75
2024/02/20 03:45:41;;;;;;;4.65;3.10;;;7.40;87.30;;;;;;4973779;28;20475;-73
2024/02/20 03:48:07;;;;;;;4.82;2.80;;;7.30;86.90;;;;;;4973938;28;20057;-73
2024/02/20 03:50:33;;;;;;;4.75;3.55;;;7.30;87.80;;;;;;4973969;28;20026;-75
2024/02/20 03:53:01;;;;;;;5.45;3.67;;;7.30;86.20;;;;;;4956564;28;20029;-73
2024/02/20 03:55:26;;;;;;;9.23;3.67;;;7.20;86.20;;;;;;4973965;28;20027;-72
2024/02/20 03:57:52;;;;;;;9.77;4.05;;;7.20;86.00;;;;;;4973805;28;20100;-72
2024/02/20 04:00:17;;;;;;;8.10;4.45;;;7.10;86.10;;;;;;4973902;28;20392;-74
2024/02/20 04:02:43;;;;;;;7.88;4.70;;;7.10;86.20;;;;;;4973844;28;20027;-72
2024/02/20 04:05:12;;;;;;;8.32;4.88;;;7.10;86.50;;;;;;4973847;28;20026;-74
2024/02/20 04:07:39;;;;;;;6.78;4.22;;;7.10;86.80;;;;;;4973747;28;20040;-73
2024/02/20 04:10:07;;;;;;;6.63;3.92;;;7.00;87.40;;;;;;4973825;28;20025;-73
2024/02/20 04:12:32;;;;;;;5.18;3.92;;;7.00;87.60;;;;;;4973867;28;20027;-73
2024/02/20 04:14:58;;;;;;;5.75;3.40;;;7.00;87.50;;;;;;4973690;28;20031;-74
2024/02/20 04:17:24;;;;;;;11.38;4.22;;;6.90;87.30;;;;;;4973511;28;20551;-74
2024/02/20 04:19:50;;;;;;;4.63;3.42;;;6.90;87.10;;;;;;4973928;28;20023;-74
2024/02/20 04:22:15;;;;;;;4.68;1.80;;;7.00;86.80;;;;;;4973775;28;20089;-74
2024/02/20 04:24:41;;;;;;;3.58;1.48;;;6.80;82.00;;;;;;4973693;28;20031;-74
2024/02/20 04:27:06;;;;;;;4.40;1.60;;;6.70;80.40;;;;;;4973958;28;20046;-74
2024/02/20 04:29:32;;;;;;;5.28;1.30;;;6.60;81.60;;;;;;4973763;28;20460;-73
2024/02/20 04:31:57;;;;;;;2.03;1.27;;;6.40;80.20;;;;;;4974609;28;20361;-73
2024/02/20 04:34:23;;;;;;;2.58;1.17;;;6.30;82.00;;;;;;4977432;28;20524;-72
2024/02/20 04:36:49;;;;;;;4.78;1.33;;;6.20;83.50;;;;;;4977426;28;20054;-74
2024/02/20 04:39:15;;;;;;;2.90;1.20;;;6.20;83.60;;;;;;4977257;28;20015;-73
2024/02/20 04:41:40;;;;;;;2.83;1.40;;;6.20;84.40;;;;;;4977561;28;20042;-76
2024/02/20 04:44:06;;;;;;;2.72;1.45;;;6.20;84.60;;;;;;4977093;28;20034;-75
2024/02/20 04:46:31;;;;;;;4.90;1.75;;;6.30;84.70;;;;;;4977045;28;20527;-75
2024/02/20 04:48:57;;;;;;;4.13;1.98;;;6.40;85.00;;;;;;4977103;28;20423;-73
2024/02/20 04:51:22;;;;;;;5.07;2.42;;;6.40;86.00;;;;;;4976998;28;20023;-76
2024/02/20 04:53:48;;;;;;;5.90;2.38;;;6.40;85.40;;;;;;4977005;28;20053;-73
2024/02/20 04:56:14;;;;;;;3.85;2.22;;;6.50;85.60;;;;;;4976941;28;20027;-76
2024/02/20 04:58:39;;;;;;;3.70;2.08;;;6.50;85.50;;;;;;4959577;28;20034;-73
2024/02/20 05:01:05;;;;;;;3.72;2.50;;;6.50;85.50;;;;;;4976907;28;20039;-73
2024/02/20 05:03:30;;;;;;;7.00;2.65;;;6.50;85.60;;;;;;4976763;28;20037;-73
2024/02/20 05:05:56;;;;;;;8.13;3.90;;;6.60;85.60;;;;;;4976652;28;20057;-73
2024/02/20 05:08:21;;;;;;;11.15;5.28;;;6.50;86.10;;;;;;4976811;28;20030;-77
2024/02/20 05:10:47;;;;;;;9.27;5.15;;;6.50;86.30;;;;;;4976457;28;20699;-74
2024/02/20 05:13:13;;;;;;;7.57;3.20;;;6.40;86.10;;;;;;4976625;28;20097;-73
2024/02/20 05:15:38;;;;;;;9.65;3.45;;;6.30;86.50;;;;;;4975319;28;20035;-73
2024/02/20 05:18:05;;;;;;;5.00;2.58;;;6.30;86.50;;;;;;4976705;28;20499;-75
2024/02/20 05:20:30;;;;;;;7.75;3.03;;;6.30;86.00;;;;;;4976491;28;20492;-74
2024/02/20 05:22:56;;;;;;;7.43;2.75;;;6.30;85.60;;;;;;4976475;28;20023;-73
2024/02/20 05:25:21;;;;;;;5.35;2.95;;;6.30;85.70;;;;;;4976415;28;20356;-73
2024/02/20 05:27:47;;;;;;;5.43;3.00;;;6.30;85.40;;;;;;4976223;28;20495;-74
2024/02/20 05:30:13;;;;;;;6.18;2.92;;;6.30;85.30;;;;;;4976403;28;20500;-74
2024/02/20 05:32:38;;;;;;;7.63;3.70;;;6.30;85.40;;;;;;4976347;28;20074;-75
2024/02/20 05:35:05;;;;;;;6.47;3.58;;;6.30;85.50;;;;;;4976382;28;20026;-74
2024/02/20 05:37:31;;;;;;;5.45;3.33;;;6.40;85.40;;;;;;4976239;28;20440;-74
2024/02/20 05:39:56;;;;;;;4.18;2.70;;;6.30;85.40;;;;;;4976325;28;20031;-75
2024/02/20 05:42:22;;;;;;;5.75;3.15;;;6.30;85.30;;;;;;4976961;28;20399;-74
2024/02/20 05:44:47;;;;;;;8.70;3.22;;;6.30;85.60;;;;;;4975796;28;20037;-74
2024/02/20 05:47:13;;;;;;;7.00;3.35;;;6.30;85.80;;;;;;4975958;28;20085;-75
2024/02/20 05:49:39;;;;;;;4.80;3.03;;;6.30;85.80;;;;;;4975908;28;20025;-74
2024/02/20 05:52:05;;;;;;;7.60;3.08;;;6.20;85.50;;;;;;4976078;28;20062;-74
2024/02/20 05:54:32;;;;;;;17.33;5.30;;;6.20;85.40;;;;;;4976231;28;20490;-75
2024/02/20 05:56:57;;;;;;;15.30;5.47;;;6.30;85.30;;;;;;4958989;28;20027;-74
2024/02/20 05:59:23;;;;;;;11.30;5.70;;;6.30;85.00;;;;;;4975929;28;20078;-74
2024/02/20 06:01:48;;;;;;;12.68;5.68;;;6.30;84.60;;;;;;4958544;28;20046;-74
2024/02/20 06:04:14;;;;;;;14.13;6.20;;;6.40;84.40;;;;;;4975833;28;20026;-74
2024/02/20 06:06:42;;;;;;;12.93;5.30;;;6.40;83.60;;;;;;4958447;28;20034;-73
2024/02/20 06:09:07;;;;;;;14.95;6.25;;;6.40;83.60;;;;;;4975659;28;20027;-75
2024/02/20 06:11:34;;;;;;;13.65;4.88;;;6.40;83.60;;;;;;4975265;28;20506;-75
2024/02/20 06:14:02;;;;;;;8.52;3.92;;;6.40;83.50;;;;;;4975587;28;20019;-78
2024/02/20 06:16:28;;;;;;;9.18;3.67;;;6.30;83.40;;;;;;4975470;28;20054;-74
2024/02/20 06:18:53;;;;;;;8.80;3.47;;;6.30;83.70;;;;;;4958085;28;20082;-74
2024/02/20 06:21:20;;;;;;;9.50;3.60;;;6.30;83.80;;;;;;4975350;28;20048;-74
2024/02/20 06:23:46;;;;;;;10.15;4.38;;;6.30;83.90;;;;;;4975213;28;20027;-74
2024/02/20 06:26:11;;;;;;;9.38;4.20;;;6.30;83.90;;;;;;4975034;28;20035;-74
2024/02/20 06:28:37;;;;;;;13.90;3.72;;;6.30;83.90;;;;;;4958049;28;20089;-77
2024/02/20 06:31:05;;;;;;;11.38;3.85;;;6.20;83.20;;;;;;4957692;28;20018;-74
2024/02/20 06:33:30;;;;;;;10.77;3.53;;;6.20;82.80;;;;;;4957888;28;20042;-77
2024/02/20 06:35:56;;;;;;;9.40;3.50;;;6.20;82.20;;;;;;4973922;28;20053;-74
2024/02/20 06:38:22;;;;;;;13.80;3.88;;;6.10;82.30;;;;;;4975067;28;20031;-73
2024/02/20 06:40:47;;;;;;;8.88;2.90;;;6.00;82.30;;;;;;4958094;28;20027;-75
2024/02/20 06:43:13;;;;;;;8.93;3.25;;;6.00;82.30;;;;;;4957996;28;20384;-75
2024/02/20 06:45:38;;;;;;;11.15;3.80;;;6.00;82.40;;;;;;4973665;28;20385;-75
2024/02/20 06:48:04;;;;;;;8.82;3.85;;;5.90;82.40;;;;;;4974941;28;20499;-74
2024/02/20 06:50:30;;;;;;;10.50;4.10;;;5.90;82.40;;;;;;4957665;28;20019;-75
2024/02/20 06:52:55;;;;;;;12.40;4.28;;;5.90;82.60;;;;;;4957523;28;20414;-75
2024/02/20 06:55:21;;;;;;;8.07;3.95;;;5.90;82.50;;;;;;4972779;28;20383;-75
2024/02/20 06:57:48;;;;;;;13.15;3.60;;;6.00;82.40;;;;;;4974688;28;20499;-75
2024/02/20 07:00:14;;;;;;;11.23;3.45;;;6.00;82.30;;;;;;4957935;28;20073;-76
2024/02/20 07:02:44;;;;;;;7.20;2.80;;;6.00;82.30;;;;;;4973638;28;20429;-75
2024/02/20 07:05:10;;;;;;;8.25;3.05;;;6.00;82.50;;;;;;4957624;28;20027;-73
2024/02/20 07:07:36;;;;;;;7.82;3.03;;;6.00;82.70;;;;;;4957454;28;20037;-74
2024/02/20 07:10:06;;;;;;;10.93;3.03;;;6.10;82.80;;;;;;4957470;28;20152;-75
2024/02/20 07:12:33;;;;;;;9.88;3.65;;;6.10;82.70;;;;;;4957605;28;20027;-77
2024/02/20 07:15:00;;;;;;;7.13;3.40;;;6.20;82.70;;;;;;4974871;28;20046;-77
2024/02/20 07:17:26;;;;;;;9.68;3.30;;;6.20;82.30;;;;;;4974288;28;20047;-76
2024/02/20 07:19:52;;;;;;;8.80;3.33;;;6.30;82.00;;;;;;4957137;28;20080;-75
2024/02/20 07:22:18;;;;;;;11.30;3.15;;;6.30;81.60;;;;;;4957085;28;20074;-75
2024/02/20 07:24:44;;;;;;;9.05;3.00;;;6.30;81.30;;;;;;4972945;28;20105;-74
2024/02/20 07:27:11;;;;;;;7.07;2.83;;;6.30;81.10;;;;;;4944148;28;20495;-76
2024/02/20 07:29:41;;;;;;;7.78;2.90;;;6.30;81.10;;;;;;4993471;28;20109;-73
2024/02/20 07:32:06;;;;;;;8.95;3.60;;;6.30;81.10;;;;;;4976495;28;20033;-73
2024/02/20 07:34:32;;;;;;;11.00;3.42;;;6.40;81.10;;;;;;4993695;28;20097;-73
2024/02/20 07:36:57;;;;;;;7.20;3.35;;;6.40;81.00;;;;;;4993623;28;20097;-75
2024/02/20 07:39:23;;;;;;;9.10;3.90;;;6.40;81.00;;;;;;4976076;28;20109;-75
2024/02/20 07:41:48;;;;;;;7.40;3.33;;;6.50;80.80;;;;;;4993479;28;20479;-74
2024/02/20 07:44:14;;;;;;;10.52;3.45;;;6.50;80.60;;;;;;4976403;28;20029;-75
2024/02/20 07:46:39;;;;;;;9.40;3.65;;;6.60;80.50;;;;;;4993319;28;20040;-76
2024/02/20 07:49:06;;;;;;;10.30;3.28;;;6.70;80.50;;;;;;4993462;28;20031;-75
2024/02/20 07:51:34;;;;;;;11.77;4.18;;;6.80;80.30;;;;;;4975892;28;20128;-75
2024/02/20 07:53:59;;;;;;;14.23;3.85;;;6.90;80.00;;;;;;4975722;28;20039;-75
2024/02/20 07:56:27;;;;;;;10.25;3.83;;;7.10;79.80;;;;;;4976145;28;20109;-76
2024/02/20 07:58:53;;;;;;;8.82;3.58;;;7.10;79.40;;;;;;4993554;28;20034;-75
2024/02/20 08:01:19;;;;;;;10.30;3.53;;;7.20;79.30;;;;;;4975943;28;20498;-75
2024/02/20 08:03:48;;;;;;;10.15;2.92;;;7.30;78.90;;;;;;4975910;28;20030;-75
2024/02/20 08:06:14;;;;;;;9.57;3.60;;;7.40;78.40;;;;;;4975884;28;20483;-75
2024/02/20 08:08:41;;;;;;;12.48;3.75;;;7.40;77.80;;;;;;4996847;28;20022;-74
2024/02/20 08:11:07;;;;;;;9.70;3.78;;;7.50;77.60;;;;;;4997313;28;20026;-76
2024/02/20 08:13:33;;;;;;;14.82;4.80;;;7.50;77.30;;;;;;4997221;28;20459;-76
2024/02/20 08:15:58;;;;;;;11.57;4.68;;;7.50;76.90;;;;;;4979361;28;20460;-77
2024/02/20 08:18:24;;;;;;;14.10;5.43;;;7.60;77.20;;;;;;4996993;28;20038;-74
2024/02/20 08:20:50;;;;;;;16.02;4.95;;;7.60;77.40;;;;;;4960605;28;20069;-75
2024/02/20 08:23:15;;;;;;;10.43;4.03;;;7.60;77.00;;;;;;4958327;29;20498;-76
2024/02/20 08:25:41;;;;;;;11.52;4.18;;;7.60;77.10;;;;;;4957898;29;20050;-74
2024/02/20 08:28:07;;;;;;;12.20;4.43;;;7.60;76.90;;;;;;4940798;29;20402;-75
2024/02/20 08:30:33;;;;;;;11.65;3.65;;;7.60;76.60;;;;;;4941012;29;20023;-73
2024/02/20 08:32:58;;;;;;;14.60;4.00;;;7.60;76.00;;;;;;4941003;29;20034;-74
2024/02/20 08:35:24;;;;;;;13.52;4.13;;;7.60;75.80;;;;;;4940807;29;20027;-74
2024/02/20 08:37:49;;;;;;;18.40;4.25;;;7.50;75.40;;;;;;4940933;29;20027;-75
2024/02/20 08:40:15;;;;;;;12.98;3.83;;;7.40;76.10;;;;;;4941123;29;20027;-75
2024/02/20 08:42:41;;;;;;;15.20;4.55;;;7.50;77.30;;;;;;4957955;29;20385;-75
2024/02/20 08:45:08;;;;;;;14.80;3.72;;;7.60;76.90;;;;;;4940612;29;20126;-74
2024/02/20 08:47:34;;;;;;;13.88;3.97;;;7.60;75.00;;;;;;4957820;29;20136;-74
2024/02/20 08:50:00;;;;;;;12.95;3.80;;;7.60;75.50;;;;;;4940678;29;20122;-74
2024/02/20 08:52:26;;;;;;;13.43;4.47;;;7.60;75.30;;;;;;4940809;29;20118;-77
2024/02/20 08:54:54;;;;;;;19.38;4.00;;;7.70;75.70;;;;;;4940638;29;20477;-79
2024/02/20 08:57:23;;;;;;;16.45;4.00;;;8.00;84.40;;;;;;4941227;29;20504;-81
2024/02/20 08:59:50;;;;;;;14.18;3.70;;;8.30;78.50;;;;;;4941981;29;20031;-84
2024/02/20 09:02:16;;;;;;;12.90;3.78;;;8.50;75.90;;;;;;4943679;29;20111;-78
2024/02/20 09:04:45;;;;;;;13.57;3.70;;;8.80;74.20;;;;;;4965428;29;20043;-78
2024/02/20 09:07:11;;;;;;;14.07;3.97;;;8.80;71.10;;;;;;4946570;29;20078;-80
2024/02/20 09:09:37;;;;;;;13.13;3.88;;;8.90;69.90;;;;;;4942351;29;20024;-79
2024/02/20 09:12:03;;;;;;;13.52;4.25;;;9.10;70.40;;;;;;4938987;29;20465;-79
2024/02/20 09:14:29;;;;;;;19.40;6.05;;;9.00;68.40;;;;;;4957494;29;20027;-80
2024/02/20 09:16:55;;;;;;;19.42;4.60;;;9.00;68.80;;;;;;4940042;29;20449;-79
2024/02/20 09:19:21;;;;;;;17.90;5.50;;;9.00;68.50;;;;;;4939016;29;20032;-77
2024/02/20 09:21:47;;;;;;;16.10;3.90;;;9.10;68.30;;;;;;4939745;29;20023;-77
2024/02/20 09:24:13;;;;;;;13.43;4.25;;;9.20;67.80;;;;;;4956253;28;20102;-77
2024/02/20 09:26:39;;;;;;;13.25;3.78;;;9.20;67.70;;;;;;4940095;29;20126;-78
2024/02/20 09:29:04;;;;;;;14.13;3.78;;;9.30;66.70;;;;;;4940217;29;20035;-75
2024/02/20 09:31:30;;;;;;;12.50;3.15;;;9.30;66.50;;;;;;4956050;29;20488;-77
2024/02/20 09:33:55;;;;;;;15.68;3.45;;;9.20;67.20;;;;;;4939912;29;20030;-79
2024/02/20 09:36:21;;;;;;;17.95;3.55;;;9.00;67.10;;;;;;4939618;29;20058;-74
2024/02/20 09:38:47;;;;;;;15.75;3.67;;;9.00;67.10;;;;;;4939908;29;20110;-74
2024/02/20 09:41:26;;;;;;;14.07;3.88;;;9.10;68.00;;;;;;4939953;29;20023;-73
2024/02/20 09:43:53;;;;;;;15.90;4.15;;;9.20;67.10;;;;;;4939479;29;20046;-75
2024/02/20 09:46:20;;;;;;;13.63;3.95;;;9.20;66.40;;;;;;4956964;29;20172;-73
2024/02/20 09:48:48;;;;;;;17.00;4.30;;;9.00;67.30;;;;;;4955521;29;20090;-75
2024/02/20 09:51:16;;;;;;;21.15;5.55;;;8.70;68.80;;;;;;4956561;29;20499;-73
2024/02/20 09:53:41;;;;;;;15.30;5.00;;;8.40;69.80;;;;;;4956504;29;20055;-73
2024/02/20 09:56:08;;;;;;;14.90;4.07;;;8.30;69.90;;;;;;4956456;29;20023;-75
2024/02/20 09:58:33;;;;;;;14.95;4.03;;;8.30;68.40;;;;;;4939200;29;20023;-75
2024/02/20 10:01:03;;;;;;;11.85;4.32;;;8.40;67.80;;;;;;4939204;29;20376;-74
2024/02/20 10:03:31;;;;;;;19.95;5.50;;;8.50;68.30;;;;;;4956533;29;20030;-76
2024/02/20 10:05:58;;;;;;;18.77;5.53;;;8.50;69.50;;;;;;4956440;29;20114;-75
2024/02/20 10:08:26;;;;;;;22.02;6.18;;;8.50;69.90;;;;;;4956150;29;20023;-73
2024/02/20 10:10:52;;;;;;;18.52;4.65;;;8.40;70.50;;;;;;4956313;29;20023;-76
2024/02/20 10:13:19;;;;;;;9.75;4.30;;;8.50;69.00;;;;;;4956488;29;20108;-74
2024/02/20 10:15:45;;;;;;;13.45;4.10;;;8.60;69.30;;;;;;4955998;29;20035;-75
2024/02/20 10:18:11;;;;;;;20.25;4.15;;;8.50;67.70;;;;;;4956346;29;20031;-76
2024/02/20 10:20:37;;;;;;;11.88;3.00;;;8.30;68.70;;;;;;4956243;29;20030;-75
2024/02/20 10:23:10;;;;;;;12.32;3.60;;;8.20;67.80;;;;;;4954898;29;20442;-75
2024/02/20 10:25:37;;;;;;;19.00;4.15;;;8.30;68.20;;;;;;4938867;29;20086;-75
2024/02/20 10:28:05;;;;;;;16.17;3.83;;;8.30;67.90;;;;;;4955987;29;20039;-74
2024/02/20 10:30:32;;;;;;;14.35;3.58;;;8.30;67.40;;;;;;4938666;29;20030;-74
2024/02/20 10:32:58;;;;;;;17.23;3.90;;;8.50;68.00;;;;;;4956135;29;20037;-74
2024/02/20 10:35:24;;;;;;;18.10;3.72;;;8.60;66.10;;;;;;4955776;29;20027;-73
2024/02/20 10:38:16;;;;;;;17.20;3.40;;;8.40;66.00;;;;;;4955565;29;20049;-74
2024/02/20 10:40:41;;;;;;;13.35;3.22;;;8.30;66.20;;;;;;4955711;29;20027;-74
2024/02/20 10:43:09;;;;;;;13.02;4.07;;;8.30;66.40;;;;;;4955560;29;20479;-74
2024/02/20 10:45:36;;;;;;;16.20;3.60;;;8.30;66.30;;;;;;4955703;29;20380;-73
2024/02/20 10:48:04;;;;;;;14.02;4.22;;;8.10;65.20;;;;;;4955594;29;20035;-75
2024/02/20 10:50:31;;;;;;;16.58;4.07;;;7.90;67.10;;;;;;4955732;29;20489;-74
2024/02/20 10:53:00;;;;;;;12.57;3.60;;;7.80;67.60;;;;;;4955683;29;20127;-73
2024/02/20 10:55:26;;;;;;;14.80;3.72;;;7.90;67.70;;;;;;4955470;29;20118;-74
2024/02/20 10:57:53;;;;;;;12.88;4.00;;;8.00;67.70;;;;;;4955550;29;20421;-74
2024/02/20 11:00:18;;;;;;;9.43;2.92;;;8.20;67.80;;;;;;4955215;29;20106;-73
2024/02/20 11:02:46;;;;;;;15.30;3.67;;;8.30;67.30;;;;;;4955300;29;20107;-75
2024/02/20 11:05:13;;;;;;;12.50;3.30;;;8.30;67.30;;;;;;4955229;29;20027;-73
2024/02/20 11:07:39;;;;;;;13.18;4.07;;;8.50;65.80;;;;;;4954651;29;20487;-73
2024/02/20 11:10:17;;;;;;;19.52;3.90;;;8.50;65.50;;;;;;4954929;29;20144;-73
2024/02/20 11:12:46;;;;;;;14.60;3.97;;;8.70;66.20;;;;;;4954930;29;20023;-74
2024/02/20 11:15:19;;;;;;;17.90;4.20;;;8.70;65.60;;;;;;4954725;28;20034;-74
2024/02/20 11:17:45;;;;;;;11.23;3.95;;;8.60;65.90;;;;;;4955129;29;20031;-76
2024/02/20 11:20:18;;;;;;;17.10;3.50;;;8.50;66.70;;;;;;4972360;28;20034;-73
2024/02/20 11:22:44;;;;;;;15.93;3.30;;;8.40;67.00;;;;;;4974168;28;20023;-76
2024/02/20 11:25:14;;;;;;;12.15;3.28;;;8.10;67.80;;;;;;4974038;28;20023;-73
2024/02/20 11:27:45;;;;;;;15.27;3.72;;;8.10;66.50;;;;;;4974015;28;20031;-75
2024/02/20 11:30:20;;;;;;;10.65;3.20;;;8.10;67.60;;;;;;4974036;28;20538;-74
2024/02/20 11:32:47;;;;;;;12.07;3.10;;;8.10;68.50;;;;;;4974325;28;20057;-73
2024/02/20 11:35:32;;;;;;;12.60;2.92;;;8.20;68.80;;;;;;4974173;28;20278;-75
2024/02/20 11:37:59;;;;;;;12.10;3.10;;;8.20;69.00;;;;;;4974010;28;20127;-74
2024/02/20 11:40:26;;;;;;;15.35;3.63;;;8.20;69.70;;;;;;4974146;28;20270;-73
2024/02/20 11:42:54;;;;;;;11.40;3.60;;;8.40;68.50;;;;;;4973376;28;20026;-73
2024/02/20 11:45:20;;;;;;;9.90;3.30;;;8.40;67.30;;;;;;4973827;28;20034;-75
2024/02/20 11:48:06;;;;;;;13.05;2.80;;;8.40;67.30;;;;;;4973766;28;20399;-76
2024/02/20 11:50:43;;;;;;;11.68;2.92;;;8.50;64.60;;;;;;4973326;28;20063;-75
2024/02/20 11:53:16;;;;;;;12.38;2.40;;;8.60;63.70;;;;;;4956032;28;20493;-74
2024/02/20 11:55:43;;;;;;;9.63;2.70;;;8.80;62.40;;;;;;4973324;28;20121;-73
2024/02/20 11:58:14;;;;;;;12.00;3.50;;;9.10;62.00;;;;;;4973542;28;20027;-74
2024/02/20 12:00:40;;;;;;;14.80;2.83;;;9.50;60.30;;;;;;4974170;28;20042;-75
2024/02/20 12:03:09;;;;;;;19.45;3.83;;;9.90;59.40;;;;;;4973365;28;20027;-74
2024/02/20 12:05:40;;;;;;;12.10;2.33;;;10.20;57.50;;;;;;4973434;28;20483;-74
2024/02/20 12:08:18;;;;;;;11.38;3.55;;;9.70;57.70;;;;;;4973746;28;20043;-74
2024/02/20 12:10:45;;;;;;;16.98;4.20;;;9.50;59.70;;;;;;4973553;28;20026;-75
2024/02/20 12:13:19;;;;;;;13.85;3.65;;;9.30;59.10;;;;;;4972249;28;20034;-72
2024/02/20 12:15:50;;;;;;;17.65;4.53;;;9.20;59.90;;;;;;4973540;28;20110;-73
2024/02/20 12:18:27;;;;;;;17.55;3.95;;;8.80;61.40;;;;;;4973572;28;20019;-73
2024/02/20 12:21:02;;;;;;;14.50;3.47;;;8.70;62.50;;;;;;4973415;28;20017;-75
2024/02/20 12:23:28;;;;;;;;;;;8.50;62.60;;;;;;4956694;28;20027;-74
2024/02/20 12:26:02;;;;;;;;;;;8.30;64.10;;;;;;4973842;28;20327;-73
2024/02/20 12:28:28;;;;;;;15.75;3.42;;;8.20;65.10;;;;;;4992740;28;20004;-74
2024/02/20 12:30:54;;;;;;;18.83;3.38;;;8.20;63.90;;;;;;4992610;28;20025;-73
2024/02/20 12:33:20;;;;;;;16.92;3.85;;;8.30;65.00;;;;;;4993115;28;20018;-74
2024/02/20 12:35:46;;;;;;;14.70;3.95;;;8.30;64.20;;;;;;4993164;28;20130;-76
2024/02/20 12:38:12;;;;;;;21.25;3.83;;;8.40;64.60;;;;;;4992891;28;20054;-75
2024/02/20 12:40:37;;;;;;;19.48;3.78;;;8.60;63.10;;;;;;4992788;28;20030;-75
2024/02/20 12:43:03;;;;;;;13.50;3.53;;;9.10;61.80;;;;;;4992785;28;20033;-75
2024/02/20 12:45:29;;;;;;;21.15;4.07;;;9.60;61.10;;;;;;4977298;28;20033;-75
2024/02/20 12:47:54;;;;;;;15.80;3.70;;;10.00;58.90;;;;;;4992793;28;20395;-76
2024/02/20 12:50:20;;;;;;;16.88;4.57;;;10.10;57.90;;;;;;4992887;28;20031;-76